Date,TemperatureHighF,TemperatureAvgF,TemperatureLowF,DewpointHighF,DewpointAvgF,DewpointLowF,HumidityHigh,HumidityAvg,HumidityLow,PressureMaxIn,PressureMinIn,WindSpeedMaxMPH,WindSpeedAvgMPH,GustSpeedMaxMPH,PrecipitationSumIn
2013-2-1,65,47,33,40,36,30,92,71,36,30.27,30.15,7,1,8,0.00
2013-2-2,65,48,38,42,38,33,87,72,39,30.33,30.21,5,1,7,0.00
2013-2-3,65,47,32,45,38,30,93,74,40,30.27,30.12,8,1,10,0.00
2013-2-4,63,48,37,44,39,33,89,73,42,30.21,30.09,6,1,10,0.00
2013-2-5,56,46,36,46,40,34,91,81,64,30.18,30.03,10,2,13,0.00
2013-2-6,59,46,32,41,36,29,93,71,43,30.21,30.09,14,2,18,0.00
2013-2-7,52,45,40,44,39,32,94,80,51,30.12,30.00,18,4,20,0.57
2013-2-8,56,44,37,38,31,21,92,64,27,30.03,29.94,21,5,26,0.01
2013-2-9,59,43,27,30,26,22,84,54,26,30.12,30.03,15,3,26,0.00
2013-2-10,64,46,29,36,28,20,87,55,25,30.18,30.03,12,2,17,0.00
2013-2-11,63,46,31,35,29,24,78,53,26,30.27,30.12,9,2,17,0.00
2013-2-12,60,45,32,37,33,27,85,63,39,30.42,30.27,9,1,12,0.00
2013-2-13,68,47,32,44,36,29,90,68,33,30.36,30.21,7,1,9,0.00
2013-2-14,73,53,37,41,36,33,89,58,27,30.33,30.18,21,4,22,0.00
2013-2-15,71,52,36,42,37,30,81,61,27,30.33,30.24,6,1,22,0.00
2013-2-16,69,51,37,43,37,33,86,64,32,30.30,30.06,6,1,7,0.00
2013-2-17,66,49,35,38,32,27,90,58,24,30.06,29.94,16,2,18,0.00
2013-2-18,60,47,34,43,36,30,85,68,47,30.03,29.88,17,3,21,0.00
2013-2-19,48,42,32,41,36,30,92,79,70,29.91,29.71,22,4,26,0.06
2013-2-20,58,44,30,33,28,24,92,59,29,30.03,29.85,21,4,26,0.00
2013-2-21,60,45,31,34,27,20,80,54,22,30.21,30.03,16,2,24,0.00
2013-2-22,61,49,34,37,32,27,79,55,36,30.27,30.12,13,2,20,0.00
2013-2-23,58,49,38,38,26,19,73,42,24,30.30,30.12,24,6,28,0.00
2013-2-24,63,47,34,29,24,19,64,44,20,30.33,30.15,15,4,28,0.00
2013-2-25,64,50,38,34,27,17,69,43,17,30.30,30.18,14,2,18,0.00
2013-2-26,65,46,34,29,25,22,67,47,20,30.27,30.18,16,4,21,0.00
2013-2-27,66,50,31,36,30,24,78,48,26,30.36,30.21,10,1,21,0.00
2013-2-28,71,55,41,43,37,32,73,52,30,30.47,30.36,10,2,13,0.00